sensor_id;sensor_type;location;lat;lon;timestamp;P1;P2;P0
69222;PMS7003;56514;51.816;-0.026;2022-11-30T00:00:10;2.00;2.00;2.00
69222;PMS7003;56514;51.816;-0.026;2022-11-30T00:03:18;3.75;3.75;3.00
69222;PMS7003;56514;51.816;-0.026;2022-11-30T00:06:27;2.75;2.75;1.50
69222;PMS7003;56514;51.816;-0.026;2022-11-30T00:09:36;3.00;3.00;3.00
69222;PMS7003;56514;51.816;-0.026;2022-11-30T00:12:46;6.00;4.50;3.00
69222;PMS7003;56514;51.816;-0.026;2022-11-30T00:15:58;3.00;3.00;3.00
69222;PMS7003;56514;51.816;-0.026;2022-11-30T00:19:09;6.00;6.00;3.50
69222;PMS7003;56514;51.816;-0.026;2022-11-30T00:22:17;7.00;7.00;4.00
69222;PMS7003;56514;51.816;-0.026;2022-11-30T00:25:27;4.00;4.00;3.00
69222;PMS7003;56514;51.816;-0.026;2022-11-30T00:28:36;5.25;4.00;3.50
69222;PMS7003;56514;51.816;-0.026;2022-11-30T00:31:46;2.00;2.00;1.00
69222;PMS7003;56514;51.816;-0.026;2022-11-30T00:34:56;3.25;3.25;2.00
69222;PMS7003;56514;51.816;-0.026;2022-11-30T00:38:05;1.00;1.00;1.00
69222;PMS7003;56514;51.816;-0.026;2022-11-30T00:41:14;1.00;1.00;0.75
69222;PMS7003;56514;51.816;-0.026;2022-11-30T00:44:23;3.00;3.00;1.00
69222;PMS7003;56514;51.816;-0.026;2022-11-30T00:47:09;1.00;1.00;1.00
69222;PMS7003;56514;51.816;-0.026;2022-11-30T00:49:55;0.75;0.75;0.00
69222;PMS7003;56514;51.816;-0.026;2022-11-30T00:52:39;2.25;2.00;1.50
69222;PMS7003;56514;51.816;-0.026;2022-11-30T00:55:24;4.00;4.00;3.25
69222;PMS7003;56514;51.816;-0.026;2022-11-30T00:58:11;2.00;2.00;1.00
69222;PMS7003;56514;51.816;-0.026;2022-11-30T01:01:01;3.00;3.00;2.50
69222;PMS7003;56514;51.816;-0.026;2022-11-30T01:03:46;3.25;3.25;2.00
69222;PMS7003;56514;51.816;-0.026;2022-11-30T01:06:32;5.00;5.00;3.75
69222;PMS7003;56514;51.816;-0.026;2022-11-30T01:09:17;4.00;4.00;3.00
69222;PMS7003;56514;51.816;-0.026;2022-11-30T01:12:01;4.50;3.00;1.50
69222;PMS7003;56514;51.816;-0.026;2022-11-30T01:14:46;3.50;3.50;3.00
69222;PMS7003;56514;51.816;-0.026;2022-11-30T01:17:31;4.50;4.50;3.75
69222;PMS7003;56514;51.816;-0.026;2022-11-30T01:20:17;1.50;1.50;1.00
69222;PMS7003;56514;51.816;-0.026;2022-11-30T01:23:02;6.50;4.00;3.00
69222;PMS7003;56514;51.816;-0.026;2022-11-30T01:25:53;3.25;3.25;2.50
69222;PMS7003;56514;51.816;-0.026;2022-11-30T01:28:39;4.50;3.75;3.00
69222;PMS7003;56514;51.816;-0.026;2022-11-30T01:31:29;3.00;3.00;3.00
69222;PMS7003;56514;51.816;-0.026;2022-11-30T01:34:14;6.25;3.25;1.50
69222;PMS7003;56514;51.816;-0.026;2022-11-30T01:36:59;3.75;3.00;1.00
69222;PMS7003;56514;51.816;-0.026;2022-11-30T01:39:44;2.50;2.50;2.50
69222;PMS7003;56514;51.816;-0.026;2022-11-30T01:42:29;1.00;1.00;0.25
69222;PMS7003;56514;51.816;-0.026;2022-11-30T01:45:16;2.50;2.50;1.00
69222;PMS7003;56514;51.816;-0.026;2022-11-30T01:48:01;2.00;2.00;1.00
69222;PMS7003;56514;51.816;-0.026;2022-11-30T01:50:45;1.50;1.50;1.00
69222;PMS7003;56514;51.816;-0.026;2022-11-30T01:53:30;3.00;3.00;1.00
69222;PMS7003;56514;51.816;-0.026;2022-11-30T01:56:15;3.00;3.00;0.25
69222;PMS7003;56514;51.816;-0.026;2022-11-30T01:59:01;0.75;0.75;0.00
69222;PMS7003;56514;51.816;-0.026;2022-11-30T02:01:46;1.00;1.00;1.00
69222;PMS7003;56514;51.816;-0.026;2022-11-30T02:04:33;1.50;1.50;1.50
69222;PMS7003;56514;51.816;-0.026;2022-11-30T02:07:19;4.00;4.00;1.50
69222;PMS7003;56514;51.816;-0.026;2022-11-30T02:10:05;0.25;0.25;0.00
69222;PMS7003;56514;51.816;-0.026;2022-11-30T02:12:59;3.00;3.00;1.00
69222;PMS7003;56514;51.816;-0.026;2022-11-30T02:31:39;1.00;1.00;0.25
69222;PMS7003;56514;51.816;-0.026;2022-11-30T02:34:31;6.25;3.25;1.50
69222;PMS7003;56514;51.816;-0.026;2022-11-30T02:37:20;1.00;1.00;1.00
69222;PMS7003;56514;51.816;-0.026;2022-11-30T02:40:08;3.25;3.25;3.00
69222;PMS7003;56514;51.816;-0.026;2022-11-30T02:42:58;1.00;1.00;1.00
69222;PMS7003;56514;51.816;-0.026;2022-11-30T02:48:50;1.00;1.00;0.50
69222;PMS7003;56514;51.816;-0.026;2022-11-30T02:51:42;2.25;2.25;1.50
69222;PMS7003;56514;51.816;-0.026;2022-11-30T02:54:29;0.75;0.75;0.25
69222;PMS7003;56514;51.816;-0.026;2022-11-30T02:57:14;0.75;0.75;0.75
69222;PMS7003;56514;51.816;-0.026;2022-11-30T02:59:59;1.00;1.00;0.75
69222;PMS7003;56514;51.816;-0.026;2022-11-30T03:02:47;1.00;1.00;0.75
69222;PMS7003;56514;51.816;-0.026;2022-11-30T03:05:32;2.00;1.50;1.00
69222;PMS7003;56514;51.816;-0.026;2022-11-30T03:08:17;5.50;5.50;3.00
69222;PMS7003;56514;51.816;-0.026;2022-11-30T03:11:02;2.75;2.00;1.50
69222;PMS7003;56514;51.816;-0.026;2022-11-30T03:13:48;0.25;0.25;0.25
69222;PMS7003;56514;51.816;-0.026;2022-11-30T03:16:33;2.50;1.00;1.00
69222;PMS7003;56514;51.816;-0.026;2022-11-30T03:19:17;1.00;1.00;1.00
69222;PMS7003;56514;51.816;-0.026;2022-11-30T03:22:02;1.00;1.00;1.00
69222;PMS7003;56514;51.816;-0.026;2022-11-30T03:24:47;1.50;1.50;1.50
69222;PMS7003;56514;51.816;-0.026;2022-11-30T03:27:32;3.50;3.50;3.00
69222;PMS7003;56514;51.816;-0.026;2022-11-30T03:30:17;1.50;1.50;0.50
69222;PMS7003;56514;51.816;-0.026;2022-11-30T03:33:02;1.00;1.00;0.25
69222;PMS7003;56514;51.816;-0.026;2022-11-30T03:35:47;2.50;2.50;2.00
69222;PMS7003;56514;51.816;-0.026;2022-11-30T03:38:32;0.00;0.00;0.00
69222;PMS7003;56514;51.816;-0.026;2022-11-30T03:41:18;1.00;1.00;1.00
69222;PMS7003;56514;51.816;-0.026;2022-11-30T03:44:02;1.50;1.50;1.00
69222;PMS7003;56514;51.816;-0.026;2022-11-30T03:46:47;2.00;1.00;0.50
69222;PMS7003;56514;51.816;-0.026;2022-11-30T03:49:32;1.00;1.00;1.00
69222;PMS7003;56514;51.816;-0.026;2022-11-30T03:52:16;2.50;2.50;1.00
69222;PMS7003;56514;51.816;-0.026;2022-11-30T03:55:02;2.50;2.50;1.50
69222;PMS7003;56514;51.816;-0.026;2022-11-30T03:57:47;1.00;1.00;1.00
69222;PMS7003;56514;51.816;-0.026;2022-11-30T04:00:32;3.50;3.50;2.50
69222;PMS7003;56514;51.816;-0.026;2022-11-30T04:03:17;3.00;3.00;3.00
69222;PMS7003;56514;51.816;-0.026;2022-11-30T04:06:02;2.50;2.50;1.00
69222;PMS7003;56514;51.816;-0.026;2022-11-30T04:08:48;1.00;1.00;0.75
69222;PMS7003;56514;51.816;-0.026;2022-11-30T04:11:33;1.50;1.50;1.00
69222;PMS7003;56514;51.816;-0.026;2022-11-30T04:14:19;2.75;2.75;2.75
69222;PMS7003;56514;51.816;-0.026;2022-11-30T04:17:03;4.25;4.25;3.00
69222;PMS7003;56514;51.816;-0.026;2022-11-30T04:19:48;1.00;1.00;1.00
69222;PMS7003;56514;51.816;-0.026;2022-11-30T04:22:34;4.00;4.00;3.00
69222;PMS7003;56514;51.816;-0.026;2022-11-30T04:25:18;1.50;1.50;0.75
69222;PMS7003;56514;51.816;-0.026;2022-11-30T04:28:03;2.50;2.00;1.00
69222;PMS7003;56514;51.816;-0.026;2022-11-30T04:30:48;1.00;1.00;1.00
69222;PMS7003;56514;51.816;-0.026;2022-11-30T04:33:33;2.50;2.50;1.00
69222;PMS7003;56514;51.816;-0.026;2022-11-30T04:36:18;4.00;4.00;3.00
69222;PMS7003;56514;51.816;-0.026;2022-11-30T04:39:04;1.00;1.00;1.00
69222;PMS7003;56514;51.816;-0.026;2022-11-30T04:41:48;2.00;2.00;1.00
69222;PMS7003;56514;51.816;-0.026;2022-11-30T04:44:33;3.00;3.00;3.00
69222;PMS7003;56514;51.816;-0.026;2022-11-30T04:47:18;2.00;2.00;1.50
69222;PMS7003;56514;51.816;-0.026;2022-11-30T04:50:03;1.00;1.00;1.00
69222;PMS7003;56514;51.816;-0.026;2022-11-30T04:52:49;1.00;1.00;1.00
69222;PMS7003;56514;51.816;-0.026;2022-11-30T04:55:35;1.00;1.00;1.00
69222;PMS7003;56514;51.816;-0.026;2022-11-30T04:58:21;3.00;3.00;1.00
69222;PMS7003;56514;51.816;-0.026;2022-11-30T05:01:06;1.25;1.25;0.50
69222;PMS7003;56514;51.816;-0.026;2022-11-30T05:03:51;2.50;2.50;1.00
69222;PMS7003;56514;51.816;-0.026;2022-11-30T05:06:36;2.50;2.50;2.50
69222;PMS7003;56514;51.816;-0.026;2022-11-30T05:09:21;0.75;0.75;0.00
69222;PMS7003;56514;51.816;-0.026;2022-11-30T05:12:06;0.75;0.75;0.00
69222;PMS7003;56514;51.816;-0.026;2022-11-30T05:14:51;2.50;2.50;1.50
69222;PMS7003;56514;51.816;-0.026;2022-11-30T05:17:35;1.50;1.50;1.00
69222;PMS7003;56514;51.816;-0.026;2022-11-30T05:20:20;1.50;1.50;1.50
69222;PMS7003;56514;51.816;-0.026;2022-11-30T05:23:05;3.00;3.00;1.00
69222;PMS7003;56514;51.816;-0.026;2022-11-30T05:25:50;1.00;1.00;1.00
69222;PMS7003;56514;51.816;-0.026;2022-11-30T05:28:35;1.50;1.50;1.00
69222;PMS7003;56514;51.816;-0.026;2022-11-30T05:31:20;2.00;2.00;1.00
69222;PMS7003;56514;51.816;-0.026;2022-11-30T05:34:05;1.75;1.50;1.50
69222;PMS7003;56514;51.816;-0.026;2022-11-30T05:36:49;3.75;3.00;1.50
69222;PMS7003;56514;51.816;-0.026;2022-11-30T05:39:34;1.00;1.00;1.00
69222;PMS7003;56514;51.816;-0.026;2022-11-30T05:42:19;4.50;4.50;3.75
69222;PMS7003;56514;51.816;-0.026;2022-11-30T05:45:04;2.50;2.50;2.00
69222;PMS7003;56514;51.816;-0.026;2022-11-30T05:47:50;3.50;2.00;1.00
69222;PMS7003;56514;51.816;-0.026;2022-11-30T05:50:35;1.50;1.50;1.00
69222;PMS7003;56514;51.816;-0.026;2022-11-30T05:53:20;3.00;3.00;1.00
69222;PMS7003;56514;51.816;-0.026;2022-11-30T05:56:07;3.00;3.00;1.50
69222;PMS7003;56514;51.816;-0.026;2022-11-30T05:58:54;1.00;1.00;1.00
69222;PMS7003;56514;51.816;-0.026;2022-11-30T06:01:38;1.00;1.00;1.00
69222;PMS7003;56514;51.816;-0.026;2022-11-30T06:04:23;3.00;3.00;1.00
69222;PMS7003;56514;51.816;-0.026;2022-11-30T06:07:08;2.00;2.00;2.00
69222;PMS7003;56514;51.816;-0.026;2022-11-30T06:09:55;3.00;3.00;1.00
69222;PMS7003;56514;51.816;-0.026;2022-11-30T06:12:40;2.00;2.00;1.00
69222;PMS7003;56514;51.816;-0.026;2022-11-30T06:15:24;1.00;1.00;1.00
69222;PMS7003;56514;51.816;-0.026;2022-11-30T06:18:12;3.25;3.25;3.00
69222;PMS7003;56514;51.816;-0.026;2022-11-30T06:20:58;3.00;3.00;3.00
69222;PMS7003;56514;51.816;-0.026;2022-11-30T06:23:46;1.50;1.50;1.50
69222;PMS7003;56514;51.816;-0.026;2022-11-30T06:26:31;1.50;1.50;1.50
69222;PMS7003;56514;51.816;-0.026;2022-11-30T06:29:16;3.00;3.00;3.00
69222;PMS7003;56514;51.816;-0.026;2022-11-30T06:32:01;3.50;3.00;3.00
69222;PMS7003;56514;51.816;-0.026;2022-11-30T06:34:45;1.50;1.50;1.50
69222;PMS7003;56514;51.816;-0.026;2022-11-30T06:37:32;3.00;3.00;1.00
69222;PMS7003;56514;51.816;-0.026;2022-11-30T06:40:18;2.50;0.75;0.75
69222;PMS7003;56514;51.816;-0.026;2022-11-30T06:43:03;3.00;3.00;1.00
69222;PMS7003;56514;51.816;-0.026;2022-11-30T06:45:48;2.50;2.50;1.00
69222;PMS7003;56514;51.816;-0.026;2022-11-30T06:48:33;1.00;1.00;1.00
69222;PMS7003;56514;51.816;-0.026;2022-11-30T06:51:19;3.00;1.00;1.00
69222;PMS7003;56514;51.816;-0.026;2022-11-30T06:54:04;1.50;1.50;1.50
69222;PMS7003;56514;51.816;-0.026;2022-11-30T06:56:49;1.75;1.00;0.25
69222;PMS7003;56514;51.816;-0.026;2022-11-30T06:59:34;0.25;0.25;0.25
69222;PMS7003;56514;51.816;-0.026;2022-11-30T07:02:25;1.50;1.50;1.50
69222;PMS7003;56514;51.816;-0.026;2022-11-30T07:05:11;0.75;0.75;0.25
69222;PMS7003;56514;51.816;-0.026;2022-11-30T07:08:00;0.75;0.75;0.25
69222;PMS7003;56514;51.816;-0.026;2022-11-30T07:10:45;3.00;3.00;1.00
69222;PMS7003;56514;51.816;-0.026;2022-11-30T07:13:31;2.00;2.00;1.00
69222;PMS7003;56514;51.816;-0.026;2022-11-30T07:16:16;0.50;0.50;0.50
69222;PMS7003;56514;51.816;-0.026;2022-11-30T07:19:00;0.00;0.00;0.00
69222;PMS7003;56514;51.816;-0.026;2022-11-30T07:21:45;3.75;3.75;1.00
69222;PMS7003;56514;51.816;-0.026;2022-11-30T07:24:30;1.00;1.00;1.00
69222;PMS7003;56514;51.816;-0.026;2022-11-30T07:27:34;3.00;3.00;2.50
69222;PMS7003;56514;51.816;-0.026;2022-11-30T07:30:18;1.50;1.50;1.00
69222;PMS7003;56514;51.816;-0.026;2022-11-30T07:33:03;1.00;1.00;0.75
69222;PMS7003;56514;51.816;-0.026;2022-11-30T07:35:48;1.00;1.00;0.75
69222;PMS7003;56514;51.816;-0.026;2022-11-30T07:38:32;2.50;2.50;1.00
69222;PMS7003;56514;51.816;-0.026;2022-11-30T07:41:17;3.50;3.50;3.00
69222;PMS7003;56514;51.816;-0.026;2022-11-30T07:44:03;0.00;0.00;0.00
69222;PMS7003;56514;51.816;-0.026;2022-11-30T07:46:49;3.00;3.00;2.50
69222;PMS7003;56514;51.816;-0.026;2022-11-30T07:49:33;1.50;1.50;1.00
69222;PMS7003;56514;51.816;-0.026;2022-11-30T07:52:18;1.00;1.00;1.00
69222;PMS7003;56514;51.816;-0.026;2022-11-30T07:55:03;0.00;0.00;0.00
69222;PMS7003;56514;51.816;-0.026;2022-11-30T07:57:48;1.00;1.00;1.00
69222;PMS7003;56514;51.816;-0.026;2022-11-30T08:00:33;3.00;1.00;1.00
69222;PMS7003;56514;51.816;-0.026;2022-11-30T08:03:18;4.50;3.25;3.00
69222;PMS7003;56514;51.816;-0.026;2022-11-30T08:06:03;1.00;1.00;0.75
69222;PMS7003;56514;51.816;-0.026;2022-11-30T08:08:58;1.50;1.50;1.50
69222;PMS7003;56514;51.816;-0.026;2022-11-30T08:11:44;0.50;0.50;0.50
69222;PMS7003;56514;51.816;-0.026;2022-11-30T08:14:29;0.00;0.00;0.00
69222;PMS7003;56514;51.816;-0.026;2022-11-30T08:17:14;0.25;0.25;0.25
69222;PMS7003;56514;51.816;-0.026;2022-11-30T08:19:59;3.00;3.00;2.50
69222;PMS7003;56514;51.816;-0.026;2022-11-30T08:22:44;3.25;3.25;3.00
69222;PMS7003;56514;51.816;-0.026;2022-11-30T08:25:29;3.75;3.75;3.00
69222;PMS7003;56514;51.816;-0.026;2022-11-30T08:28:15;1.00;1.00;1.00
69222;PMS7003;56514;51.816;-0.026;2022-11-30T08:31:00;0.50;0.50;0.50
69222;PMS7003;56514;51.816;-0.026;2022-11-30T08:33:47;1.00;1.00;1.00
69222;PMS7003;56514;51.816;-0.026;2022-11-30T08:36:33;5.00;5.00;4.25
69222;PMS7003;56514;51.816;-0.026;2022-11-30T08:39:18;5.50;5.50;4.00
69222;PMS7003;56514;51.816;-0.026;2022-11-30T08:42:03;3.00;3.00;3.00
69222;PMS7003;56514;51.816;-0.026;2022-11-30T08:44:49;7.50;6.75;6.00
69222;PMS7003;56514;51.816;-0.026;2022-11-30T08:47:33;13.00;13.00;7.50
69222;PMS7003;56514;51.816;-0.026;2022-11-30T08:50:18;7.75;7.25;5.25
69222;PMS7003;56514;51.816;-0.026;2022-11-30T08:53:03;7.50;7.50;6.25
69222;PMS7003;56514;51.816;-0.026;2022-11-30T08:55:57;6.25;6.25;6.00
69222;PMS7003;56514;51.816;-0.026;2022-11-30T08:58:44;6.00;6.00;4.00
69222;PMS7003;56514;51.816;-0.026;2022-11-30T09:01:30;7.00;7.00;6.50
69222;PMS7003;56514;51.816;-0.026;2022-11-30T09:04:16;9.00;8.00;6.00
69222;PMS7003;56514;51.816;-0.026;2022-11-30T09:07:00;7.00;7.00;5.50
69222;PMS7003;56514;51.816;-0.026;2022-11-30T09:09:45;6.00;6.00;4.50
69222;PMS7003;56514;51.816;-0.026;2022-11-30T09:12:32;10.50;9.25;6.00
69222;PMS7003;56514;51.816;-0.026;2022-11-30T09:15:19;6.25;6.00;5.50
69222;PMS7003;56514;51.816;-0.026;2022-11-30T09:18:03;7.00;7.00;5.50
69222;PMS7003;56514;51.816;-0.026;2022-11-30T09:20:48;4.00;4.00;3.75
69222;PMS7003;56514;51.816;-0.026;2022-11-30T09:23:33;7.00;7.00;4.00
69222;PMS7003;56514;51.816;-0.026;2022-11-30T09:26:19;3.75;3.75;3.00
69222;PMS7003;56514;51.816;-0.026;2022-11-30T09:29:05;6.50;6.50;4.25
69222;PMS7003;56514;51.816;-0.026;2022-11-30T09:31:50;7.50;7.50;6.00
69222;PMS7003;56514;51.816;-0.026;2022-11-30T09:34:34;7.25;6.75;3.75
69222;PMS7003;56514;51.816;-0.026;2022-11-30T09:37:19;11.50;9.75;7.00
69222;PMS7003;56514;51.816;-0.026;2022-11-30T09:40:04;6.25;6.25;5.75
69222;PMS7003;56514;51.816;-0.026;2022-11-30T09:42:59;7.00;7.00;4.00
69222;PMS7003;56514;51.816;-0.026;2022-11-30T09:46:00;6.75;6.75;4.50
69222;PMS7003;56514;51.816;-0.026;2022-11-30T09:48:50;8.25;8.25;7.00
69222;PMS7003;56514;51.816;-0.026;2022-11-30T09:51:48;11.00;10.25;6.50
69222;PMS7003;56514;51.816;-0.026;2022-11-30T09:54:36;12.25;11.50;9.00
69222;PMS7003;56514;51.816;-0.026;2022-11-30T10:00:23;7.00;6.50;3.00
69222;PMS7003;56514;51.816;-0.026;2022-11-30T10:03:09;10.25;10.25;7.00
69222;PMS7003;56514;51.816;-0.026;2022-11-30T10:06:03;9.25;9.25;6.75
69222;PMS7003;56514;51.816;-0.026;2022-11-30T10:12:04;9.25;6.50;4.00
69222;PMS7003;56514;51.816;-0.026;2022-11-30T10:18:46;7.75;7.75;6.00
69222;PMS7003;56514;51.816;-0.026;2022-11-30T10:27:58;4.50;4.50;3.00
69222;PMS7003;56514;51.816;-0.026;2022-11-30T10:31:08;3.25;3.00;1.50
69222;PMS7003;56514;51.816;-0.026;2022-11-30T10:34:25;8.25;8.25;6.25
69222;PMS7003;56514;51.816;-0.026;2022-11-30T10:37:25;7.00;7.00;6.00
69222;PMS7003;56514;51.816;-0.026;2022-11-30T10:46:51;3.00;3.00;3.00
69222;PMS7003;56514;51.816;-0.026;2022-11-30T10:49:33;5.25;5.25;4.00
69222;PMS7003;56514;51.816;-0.026;2022-11-30T10:52:28;3.50;3.50;2.25
69222;PMS7003;56514;51.816;-0.026;2022-11-30T10:55:18;4.25;4.25;3.50
69222;PMS7003;56514;51.816;-0.026;2022-11-30T10:58:11;8.25;8.25;6.25
69222;PMS7003;56514;51.816;-0.026;2022-11-30T11:01:09;4.50;4.50;3.00
69222;PMS7003;56514;51.816;-0.026;2022-11-30T11:06:57;4.00;4.00;2.50
69222;PMS7003;56514;51.816;-0.026;2022-11-30T11:09:53;3.00;3.00;2.00
69222;PMS7003;56514;51.816;-0.026;2022-11-30T11:12:37;2.50;2.50;2.00
69222;PMS7003;56514;51.816;-0.026;2022-11-30T11:15:27;6.00;5.00;4.00
69222;PMS7003;56514;51.816;-0.026;2022-11-30T11:21:07;2.50;2.50;2.00
69222;PMS7003;56514;51.816;-0.026;2022-11-30T11:24:02;3.50;3.50;2.00
69222;PMS7003;56514;51.816;-0.026;2022-11-30T11:26:54;2.50;2.50;1.75
69222;PMS7003;56514;51.816;-0.026;2022-11-30T11:29:40;3.00;3.00;2.00
69222;PMS7003;56514;51.816;-0.026;2022-11-30T11:32:26;3.00;3.00;2.00
69222;PMS7003;56514;51.816;-0.026;2022-11-30T11:38:24;2.25;2.25;2.00
69222;PMS7003;56514;51.816;-0.026;2022-11-30T11:47:00;1.00;1.00;1.00
69222;PMS7003;56514;51.816;-0.026;2022-11-30T11:49:47;4.00;4.00;4.00
69222;PMS7003;56514;51.816;-0.026;2022-11-30T11:52:34;4.75;4.25;2.50
69222;PMS7003;56514;51.816;-0.026;2022-11-30T11:55:19;2.00;2.00;1.00
69222;PMS7003;56514;51.816;-0.026;2022-11-30T11:58:05;5.50;5.50;5.00
69222;PMS7003;56514;51.816;-0.026;2022-11-30T12:00:56;5.00;5.00;4.00
69222;PMS7003;56514;51.816;-0.026;2022-11-30T12:03:50;4.25;4.25;4.00
69222;PMS7003;56514;51.816;-0.026;2022-11-30T12:06:40;4.00;4.00;4.00
69222;PMS7003;56514;51.816;-0.026;2022-11-30T12:09:33;2.00;2.00;2.00
69222;PMS7003;56514;51.816;-0.026;2022-11-30T12:12:22;4.00;4.00;3.00
69222;PMS7003;56514;51.816;-0.026;2022-11-30T12:15:10;3.50;3.50;2.00
69222;PMS7003;56514;51.816;-0.026;2022-11-30T12:18:35;2.00;2.00;1.25
69222;PMS7003;56514;51.816;-0.026;2022-11-30T12:43:14;4.25;4.25;4.00
69222;PMS7003;56514;51.816;-0.026;2022-11-30T12:46:08;4.00;4.00;2.50
69222;PMS7003;56514;51.816;-0.026;2022-11-30T13:04:45;9.25;7.75;5.00
69222;PMS7003;56514;51.816;-0.026;2022-11-30T13:10:34;4.25;4.25;4.25
69222;PMS7003;56514;51.816;-0.026;2022-11-30T13:13:24;4.00;4.00;4.00
69222;PMS7003;56514;51.816;-0.026;2022-11-30T13:16:13;6.00;6.00;4.00
69222;PMS7003;56514;51.816;-0.026;2022-11-30T13:19:07;9.00;9.00;7.00
69222;PMS7003;56514;51.816;-0.026;2022-11-30T13:22:04;7.00;7.00;5.00
69222;PMS7003;56514;51.816;-0.026;2022-11-30T13:25:10;4.50;4.50;4.25
69222;PMS7003;56514;51.816;-0.026;2022-11-30T13:34:21;3.50;3.50;2.00
69222;PMS7003;56514;51.816;-0.026;2022-11-30T13:37:11;7.75;7.75;6.00
69222;PMS7003;56514;51.816;-0.026;2022-11-30T13:39:57;5.00;5.00;4.75
69222;PMS7003;56514;51.816;-0.026;2022-11-30T13:42:43;5.00;5.00;4.00
69222;PMS7003;56514;51.816;-0.026;2022-11-30T13:45:32;2.00;2.00;2.00
69222;PMS7003;56514;51.816;-0.026;2022-11-30T13:51:35;4.00;4.00;2.00
69222;PMS7003;56514;51.816;-0.026;2022-11-30T13:54:35;4.75;4.75;4.00
69222;PMS7003;56514;51.816;-0.026;2022-11-30T14:06:04;4.25;4.25;4.00
69222;PMS7003;56514;51.816;-0.026;2022-11-30T14:18:23;4.00;4.00;3.00
69222;PMS7003;56514;51.816;-0.026;2022-11-30T14:24:17;4.00;4.00;4.00
69222;PMS7003;56514;51.816;-0.026;2022-11-30T14:27:04;4.00;4.00;2.00
69222;PMS7003;56514;51.816;-0.026;2022-11-30T14:29:55;3.00;3.00;2.00
69222;PMS7003;56514;51.816;-0.026;2022-11-30T14:32:50;3.00;3.00;2.50
69222;PMS7003;56514;51.816;-0.026;2022-11-30T14:35:40;4.25;4.25;2.50
69222;PMS7003;56514;51.816;-0.026;2022-11-30T14:38:28;2.00;2.00;1.75
69222;PMS7003;56514;51.816;-0.026;2022-11-30T14:41:18;1.00;1.00;1.00
69222;PMS7003;56514;51.816;-0.026;2022-11-30T14:44:09;0.25;0.25;0.00
69222;PMS7003;56514;51.816;-0.026;2022-11-30T14:47:10;1.00;1.00;1.00
69222;PMS7003;56514;51.816;-0.026;2022-11-30T14:50:01;1.00;1.00;1.00
69222;PMS7003;56514;51.816;-0.026;2022-11-30T14:53:00;1.50;1.50;1.25
69222;PMS7003;56514;51.816;-0.026;2022-11-30T14:56:04;1.75;1.75;1.00
69222;PMS7003;56514;51.816;-0.026;2022-11-30T15:02:25;2.00;2.00;1.00
69222;PMS7003;56514;51.816;-0.026;2022-11-30T15:05:13;2.00;2.00;2.00
69222;PMS7003;56514;51.816;-0.026;2022-11-30T15:08:07;4.00;4.00;3.50
69222;PMS7003;56514;51.816;-0.026;2022-11-30T15:11:04;2.00;2.00;1.00
69222;PMS7003;56514;51.816;-0.026;2022-11-30T15:13:52;1.50;1.50;1.50
69222;PMS7003;56514;51.816;-0.026;2022-11-30T15:16:47;4.25;4.25;2.50
69222;PMS7003;56514;51.816;-0.026;2022-11-30T15:19:33;7.75;7.75;6.00
69222;PMS7003;56514;51.816;-0.026;2022-11-30T15:22:21;10.75;10.75;9.50
69222;PMS7003;56514;51.816;-0.026;2022-11-30T15:25:10;8.00;8.00;5.00
69222;PMS7003;56514;51.816;-0.026;2022-11-30T15:28:00;0.00;0.00;0.00
69222;PMS7003;56514;51.816;-0.026;2022-11-30T15:30:49;11.00;9.00;7.75
69222;PMS7003;56514;51.816;-0.026;2022-11-30T15:33:41;7.25;7.25;5.50
69222;PMS7003;56514;51.816;-0.026;2022-11-30T15:36:32;7.50;7.50;6.50
69222;PMS7003;56514;51.816;-0.026;2022-11-30T15:39:22;3.50;3.50;2.50
69222;PMS7003;56514;51.816;-0.026;2022-11-30T15:42:14;6.00;6.00;3.00
69222;PMS7003;56514;51.816;-0.026;2022-11-30T15:48:24;1.25;1.25;1.00
69222;PMS7003;56514;51.816;-0.026;2022-11-30T15:51:19;2.00;2.00;1.00
69222;PMS7003;56514;51.816;-0.026;2022-11-30T15:54:07;1.00;1.00;1.00
69222;PMS7003;56514;51.816;-0.026;2022-11-30T15:56:55;1.00;1.00;1.00
69222;PMS7003;56514;51.816;-0.026;2022-11-30T16:00:14;0.50;0.50;0.50
69222;PMS7003;56514;51.816;-0.026;2022-11-30T16:03:06;0.00;0.00;0.00
69222;PMS7003;56514;51.816;-0.026;2022-11-30T16:05:59;0.00;0.00;0.00
69222;PMS7003;56514;51.816;-0.026;2022-11-30T16:08:48;1.00;1.00;1.00
69222;PMS7003;56514;51.816;-0.026;2022-11-30T16:11:34;1.75;1.75;1.00
69222;PMS7003;56514;51.816;-0.026;2022-11-30T16:14:20;0.00;0.00;0.00
69222;PMS7003;56514;51.816;-0.026;2022-11-30T16:17:08;1.00;1.00;1.00
69222;PMS7003;56514;51.816;-0.026;2022-11-30T16:19:54;1.25;1.25;1.00
69222;PMS7003;56514;51.816;-0.026;2022-11-30T16:22:43;0.25;0.25;0.25
69222;PMS7003;56514;51.816;-0.026;2022-11-30T16:25:29;1.00;1.00;1.00
69222;PMS7003;56514;51.816;-0.026;2022-11-30T16:28:14;2.00;2.00;2.00
69222;PMS7003;56514;51.816;-0.026;2022-11-30T16:31:00;1.00;1.00;1.00
69222;PMS7003;56514;51.816;-0.026;2022-11-30T16:33:46;1.00;1.00;1.00
69222;PMS7003;56514;51.816;-0.026;2022-11-30T16:36:32;0.00;0.00;0.00
69222;PMS7003;56514;51.816;-0.026;2022-11-30T16:39:20;0.50;0.50;0.50
69222;PMS7003;56514;51.816;-0.026;2022-11-30T16:42:05;0.00;0.00;0.00
69222;PMS7003;56514;51.816;-0.026;2022-11-30T16:44:52;0.25;0.25;0.00
69222;PMS7003;56514;51.816;-0.026;2022-11-30T16:47:37;0.00;0.00;0.00
69222;PMS7003;56514;51.816;-0.026;2022-11-30T16:50:22;0.00;0.00;0.00
69222;PMS7003;56514;51.816;-0.026;2022-11-30T16:53:11;0.00;0.00;0.00
69222;PMS7003;56514;51.816;-0.026;2022-11-30T16:56:00;0.25;0.25;0.25
69222;PMS7003;56514;51.816;-0.026;2022-11-30T16:58:45;0.00;0.00;0.00
69222;PMS7003;56514;51.816;-0.026;2022-11-30T17:01:31;0.00;0.00;0.00
69222;PMS7003;56514;51.816;-0.026;2022-11-30T17:04:23;0.00;0.00;0.00
69222;PMS7003;56514;51.816;-0.026;2022-11-30T17:07:10;0.00;0.00;0.00
69222;PMS7003;56514;51.816;-0.026;2022-11-30T17:09:55;0.00;0.00;0.00
69222;PMS7003;56514;51.816;-0.026;2022-11-30T17:12:40;1.00;1.00;0.75
69222;PMS7003;56514;51.816;-0.026;2022-11-30T17:15:25;0.75;0.75;0.50
69222;PMS7003;56514;51.816;-0.026;2022-11-30T17:18:10;0.75;0.75;0.25
69222;PMS7003;56514;51.816;-0.026;2022-11-30T17:20:56;0.25;0.25;0.25
69222;PMS7003;56514;51.816;-0.026;2022-11-30T17:23:42;0.75;0.75;0.75
69222;PMS7003;56514;51.816;-0.026;2022-11-30T17:26:27;0.25;0.25;0.00
69222;PMS7003;56514;51.816;-0.026;2022-11-30T17:29:13;0.00;0.00;0.00
69222;PMS7003;56514;51.816;-0.026;2022-11-30T17:32:01;1.00;1.00;1.00
69222;PMS7003;56514;51.816;-0.026;2022-11-30T17:34:45;1.00;1.00;1.00
69222;PMS7003;56514;51.816;-0.026;2022-11-30T17:37:30;1.50;1.50;1.00
69222;PMS7003;56514;51.816;-0.026;2022-11-30T17:40:15;3.50;3.50;2.00
69222;PMS7003;56514;51.816;-0.026;2022-11-30T17:43:00;1.00;1.00;1.00
69222;PMS7003;56514;51.816;-0.026;2022-11-30T17:45:44;15.50;13.75;11.50
69222;PMS7003;56514;51.816;-0.026;2022-11-30T17:48:29;26.00;22.50;17.50
69222;PMS7003;56514;51.816;-0.026;2022-11-30T17:51:15;20.25;20.25;19.00
69222;PMS7003;56514;51.816;-0.026;2022-11-30T17:54:00;16.25;16.25;15.00
69222;PMS7003;56514;51.816;-0.026;2022-11-30T17:56:45;12.75;12.75;12.00
69222;PMS7003;56514;51.816;-0.026;2022-11-30T17:59:30;11.25;11.25;8.50
69222;PMS7003;56514;51.816;-0.026;2022-11-30T18:02:14;5.50;5.50;5.00
69222;PMS7003;56514;51.816;-0.026;2022-11-30T18:04:59;4.75;4.75;4.50
69222;PMS7003;56514;51.816;-0.026;2022-11-30T18:07:44;4.00;4.00;2.00
69222;PMS7003;56514;51.816;-0.026;2022-11-30T18:10:30;2.50;2.50;1.50
69222;PMS7003;56514;51.816;-0.026;2022-11-30T18:13:15;4.50;3.50;3.50
69222;PMS7003;56514;51.816;-0.026;2022-11-30T18:16:07;4.00;4.00;3.50
69222;PMS7003;56514;51.816;-0.026;2022-11-30T18:19:00;4.00;4.00;2.50
69222;PMS7003;56514;51.816;-0.026;2022-11-30T18:21:45;4.75;4.75;4.00
69222;PMS7003;56514;51.816;-0.026;2022-11-30T18:24:32;4.75;4.75;4.75